Terminal Aerodrome Forecast
Issued by NWS

Home | Current Version | Previous Version | Text Only | Print | Product List | Glossary On
Versions: 1 2 3 4 5 6 7 8 9 10 11
000
FTUS45 KRIW 181724
TAFLND
TAF
KLND 181724Z 1818/1918 35007KT P6SM BKN060
     FM181830 01010KT 4SM -SN BKN025
     FM182200 01006KT 1 1/2SM -SN OVC018
     FM190300 33007KT 3/4SM -SN OVC009
     FM191600 01008KT 3SM -SN OVC020=

USA.gov is the U.S. government's official web portal to all federal, state and local government web resources and services.